sensor_id;sensor_type;location;lat;lon;timestamp;P1;durP1;ratioP1;P2;durP2;ratioP2
7446;SDS011;3765;47.962;7.952;2022-10-31T00:01:20;14.70;;;3.30;;
7446;SDS011;3765;47.962;7.952;2022-10-31T00:03:49;12.83;;;3.23;;
7446;SDS011;3765;47.962;7.952;2022-10-31T00:06:17;15.07;;;3.67;;
7446;SDS011;3765;47.962;7.952;2022-10-31T00:08:45;18.77;;;3.63;;
7446;SDS011;3765;47.962;7.952;2022-10-31T00:11:15;15.87;;;4.30;;
7446;SDS011;3765;47.962;7.952;2022-10-31T00:13:43;16.87;;;3.03;;
7446;SDS011;3765;47.962;7.952;2022-10-31T00:16:14;20.53;;;3.77;;
7446;SDS011;3765;47.962;7.952;2022-10-31T00:18:42;25.33;;;4.40;;
7446;SDS011;3765;47.962;7.952;2022-10-31T00:21:11;18.93;;;3.70;;
7446;SDS011;3765;47.962;7.952;2022-10-31T00:23:39;12.43;;;3.53;;
7446;SDS011;3765;47.962;7.952;2022-10-31T00:26:07;15.50;;;3.50;;
7446;SDS011;3765;47.962;7.952;2022-10-31T00:28:36;17.63;;;3.90;;
7446;SDS011;3765;47.962;7.952;2022-10-31T00:31:05;13.83;;;3.00;;
7446;SDS011;3765;47.962;7.952;2022-10-31T00:33:35;17.07;;;3.70;;
7446;SDS011;3765;47.962;7.952;2022-10-31T00:36:05;14.00;;;3.27;;
7446;SDS011;3765;47.962;7.952;2022-10-31T00:38:34;12.07;;;2.70;;
7446;SDS011;3765;47.962;7.952;2022-10-31T00:41:02;19.90;;;3.60;;
7446;SDS011;3765;47.962;7.952;2022-10-31T00:43:31;16.77;;;3.30;;
7446;SDS011;3765;47.962;7.952;2022-10-31T00:46:00;15.40;;;3.03;;
7446;SDS011;3765;47.962;7.952;2022-10-31T00:48:29;11.03;;;3.07;;
7446;SDS011;3765;47.962;7.952;2022-10-31T00:50:57;16.53;;;4.07;;
7446;SDS011;3765;47.962;7.952;2022-10-31T00:53:25;17.30;;;3.43;;
7446;SDS011;3765;47.962;7.952;2022-10-31T00:55:53;12.37;;;3.40;;
7446;SDS011;3765;47.962;7.952;2022-10-31T00:58:22;14.27;;;3.80;;
7446;SDS011;3765;47.962;7.952;2022-10-31T01:00:50;17.80;;;3.60;;
7446;SDS011;3765;47.962;7.952;2022-10-31T01:03:23;12.97;;;4.10;;
7446;SDS011;3765;47.962;7.952;2022-10-31T01:05:57;17.60;;;3.80;;
7446;SDS011;3765;47.962;7.952;2022-10-31T01:08:26;17.80;;;4.30;;
7446;SDS011;3765;47.962;7.952;2022-10-31T01:11:02;15.60;;;3.90;;
7446;SDS011;3765;47.962;7.952;2022-10-31T01:13:32;11.83;;;3.23;;
7446;SDS011;3765;47.962;7.952;2022-10-31T01:16:01;15.00;;;3.63;;
7446;SDS011;3765;47.962;7.952;2022-10-31T01:18:33;12.20;;;2.80;;
7446;SDS011;3765;47.962;7.952;2022-10-31T01:21:02;13.57;;;3.50;;
7446;SDS011;3765;47.962;7.952;2022-10-31T01:23:32;11.10;;;3.07;;
7446;SDS011;3765;47.962;7.952;2022-10-31T01:26:02;14.13;;;3.40;;
7446;SDS011;3765;47.962;7.952;2022-10-31T01:28:35;13.00;;;3.50;;
7446;SDS011;3765;47.962;7.952;2022-10-31T01:31:05;13.77;;;3.40;;
7446;SDS011;3765;47.962;7.952;2022-10-31T01:33:36;17.30;;;3.13;;
7446;SDS011;3765;47.962;7.952;2022-10-31T01:36:11;16.27;;;3.37;;
7446;SDS011;3765;47.962;7.952;2022-10-31T01:38:42;10.83;;;2.90;;
7446;SDS011;3765;47.962;7.952;2022-10-31T01:41:10;19.77;;;3.57;;
7446;SDS011;3765;47.962;7.952;2022-10-31T01:43:47;14.80;;;2.73;;
7446;SDS011;3765;47.962;7.952;2022-10-31T01:46:18;16.30;;;3.23;;
7446;SDS011;3765;47.962;7.952;2022-10-31T01:48:51;11.80;;;2.97;;
7446;SDS011;3765;47.962;7.952;2022-10-31T01:51:22;12.70;;;3.70;;
7446;SDS011;3765;47.962;7.952;2022-10-31T01:53:54;10.73;;;3.60;;
7446;SDS011;3765;47.962;7.952;2022-10-31T01:56:25;15.20;;;3.80;;
7446;SDS011;3765;47.962;7.952;2022-10-31T01:58:54;10.93;;;3.20;;
7446;SDS011;3765;47.962;7.952;2022-10-31T02:01:23;9.70;;;3.03;;
7446;SDS011;3765;47.962;7.952;2022-10-31T02:03:53;10.83;;;3.43;;
7446;SDS011;3765;47.962;7.952;2022-10-31T02:06:26;17.73;;;2.70;;
7446;SDS011;3765;47.962;7.952;2022-10-31T02:09:00;11.83;;;3.10;;
7446;SDS011;3765;47.962;7.952;2022-10-31T02:11:31;13.70;;;3.40;;
7446;SDS011;3765;47.962;7.952;2022-10-31T02:14:02;13.10;;;3.20;;
7446;SDS011;3765;47.962;7.952;2022-10-31T02:16:31;11.70;;;3.43;;
7446;SDS011;3765;47.962;7.952;2022-10-31T02:19:00;14.27;;;3.37;;
7446;SDS011;3765;47.962;7.952;2022-10-31T02:21:32;17.73;;;3.80;;
7446;SDS011;3765;47.962;7.952;2022-10-31T02:27:13;16.53;;;3.67;;
7446;SDS011;3765;47.962;7.952;2022-10-31T02:30:02;16.43;;;3.37;;
7446;SDS011;3765;47.962;7.952;2022-10-31T02:32:44;13.80;;;3.20;;
7446;SDS011;3765;47.962;7.952;2022-10-31T02:35:32;12.47;;;3.53;;
7446;SDS011;3765;47.962;7.952;2022-10-31T02:38:21;16.27;;;3.23;;
7446;SDS011;3765;47.962;7.952;2022-10-31T02:40:58;10.60;;;3.50;;
7446;SDS011;3765;47.962;7.952;2022-10-31T02:43:33;12.63;;;3.50;;
7446;SDS011;3765;47.962;7.952;2022-10-31T02:46:08;18.00;;;3.90;;
7446;SDS011;3765;47.962;7.952;2022-10-31T02:48:43;13.80;;;3.63;;
7446;SDS011;3765;47.962;7.952;2022-10-31T02:51:13;12.90;;;3.30;;
7446;SDS011;3765;47.962;7.952;2022-10-31T02:53:42;10.80;;;4.00;;
7446;SDS011;3765;47.962;7.952;2022-10-31T02:56:11;13.87;;;3.33;;
7446;SDS011;3765;47.962;7.952;2022-10-31T02:58:42;14.80;;;4.40;;
7446;SDS011;3765;47.962;7.952;2022-10-31T03:07:20;13.57;;;3.43;;
7446;SDS011;3765;47.962;7.952;2022-10-31T03:09:55;23.90;;;3.70;;
7446;SDS011;3765;47.962;7.952;2022-10-31T03:12:30;12.30;;;3.43;;
7446;SDS011;3765;47.962;7.952;2022-10-31T03:15:12;12.00;;;3.37;;
7446;SDS011;3765;47.962;7.952;2022-10-31T03:17:49;11.80;;;3.30;;
7446;SDS011;3765;47.962;7.952;2022-10-31T03:20:21;27.37;;;4.00;;
7446;SDS011;3765;47.962;7.952;2022-10-31T03:22:56;11.83;;;3.60;;
7446;SDS011;3765;47.962;7.952;2022-10-31T03:25:25;13.10;;;3.30;;
7446;SDS011;3765;47.962;7.952;2022-10-31T03:27:54;11.60;;;3.40;;
7446;SDS011;3765;47.962;7.952;2022-10-31T03:30:24;13.67;;;3.47;;
7446;SDS011;3765;47.962;7.952;2022-10-31T03:32:53;21.70;;;3.73;;
7446;SDS011;3765;47.962;7.952;2022-10-31T03:35:24;14.33;;;3.70;;
7446;SDS011;3765;47.962;7.952;2022-10-31T03:37:54;17.63;;;3.90;;
7446;SDS011;3765;47.962;7.952;2022-10-31T03:40:32;21.13;;;3.90;;
7446;SDS011;3765;47.962;7.952;2022-10-31T03:43:05;10.80;;;3.80;;
7446;SDS011;3765;47.962;7.952;2022-10-31T03:45:37;14.60;;;3.80;;
7446;SDS011;3765;47.962;7.952;2022-10-31T03:48:10;18.27;;;3.53;;
7446;SDS011;3765;47.962;7.952;2022-10-31T03:50:40;15.80;;;4.00;;
7446;SDS011;3765;47.962;7.952;2022-10-31T03:53:19;16.17;;;3.60;;
7446;SDS011;3765;47.962;7.952;2022-10-31T03:55:52;11.97;;;3.40;;
7446;SDS011;3765;47.962;7.952;2022-10-31T03:58:25;10.50;;;3.00;;
7446;SDS011;3765;47.962;7.952;2022-10-31T04:00:57;12.03;;;3.53;;
7446;SDS011;3765;47.962;7.952;2022-10-31T04:03:30;9.77;;;3.10;;
7446;SDS011;3765;47.962;7.952;2022-10-31T04:06:01;16.77;;;3.67;;
7446;SDS011;3765;47.962;7.952;2022-10-31T04:08:36;18.80;;;4.23;;
7446;SDS011;3765;47.962;7.952;2022-10-31T04:11:09;17.53;;;4.00;;
7446;SDS011;3765;47.962;7.952;2022-10-31T04:13:40;15.47;;;3.40;;
7446;SDS011;3765;47.962;7.952;2022-10-31T04:16:10;18.20;;;3.60;;
7446;SDS011;3765;47.962;7.952;2022-10-31T04:18:42;21.83;;;4.50;;
7446;SDS011;3765;47.962;7.952;2022-10-31T04:21:11;11.77;;;3.40;;
7446;SDS011;3765;47.962;7.952;2022-10-31T04:23:40;12.07;;;4.13;;
7446;SDS011;3765;47.962;7.952;2022-10-31T04:26:09;15.97;;;3.50;;
7446;SDS011;3765;47.962;7.952;2022-10-31T04:28:38;12.53;;;3.53;;
7446;SDS011;3765;47.962;7.952;2022-10-31T04:31:07;24.43;;;9.10;;
7446;SDS011;3765;47.962;7.952;2022-10-31T04:33:37;12.70;;;4.40;;
7446;SDS011;3765;47.962;7.952;2022-10-31T04:36:06;13.70;;;3.60;;
7446;SDS011;3765;47.962;7.952;2022-10-31T04:38:34;16.70;;;3.70;;
7446;SDS011;3765;47.962;7.952;2022-10-31T04:41:04;15.50;;;3.90;;
7446;SDS011;3765;47.962;7.952;2022-10-31T04:43:32;14.10;;;3.17;;
7446;SDS011;3765;47.962;7.952;2022-10-31T04:46:00;10.30;;;2.93;;
7446;SDS011;3765;47.962;7.952;2022-10-31T04:48:29;12.40;;;3.10;;
7446;SDS011;3765;47.962;7.952;2022-10-31T04:51:00;13.17;;;3.40;;
7446;SDS011;3765;47.962;7.952;2022-10-31T04:53:28;15.93;;;3.60;;
7446;SDS011;3765;47.962;7.952;2022-10-31T04:55:57;11.07;;;3.37;;
7446;SDS011;3765;47.962;7.952;2022-10-31T04:58:27;13.73;;;3.30;;
7446;SDS011;3765;47.962;7.952;2022-10-31T05:00:56;15.20;;;3.50;;
7446;SDS011;3765;47.962;7.952;2022-10-31T05:03:24;18.97;;;3.40;;
7446;SDS011;3765;47.962;7.952;2022-10-31T05:05:52;16.87;;;3.57;;
7446;SDS011;3765;47.962;7.952;2022-10-31T05:08:20;12.90;;;3.77;;
7446;SDS011;3765;47.962;7.952;2022-10-31T05:10:49;23.00;;;3.30;;
7446;SDS011;3765;47.962;7.952;2022-10-31T05:13:18;16.73;;;3.30;;
7446;SDS011;3765;47.962;7.952;2022-10-31T05:15:48;20.47;;;4.20;;
7446;SDS011;3765;47.962;7.952;2022-10-31T05:18:17;10.70;;;3.30;;
7446;SDS011;3765;47.962;7.952;2022-10-31T05:20:45;14.90;;;4.43;;
7446;SDS011;3765;47.962;7.952;2022-10-31T05:23:13;29.30;;;4.73;;
7446;SDS011;3765;47.962;7.952;2022-10-31T05:25:41;10.90;;;3.67;;
7446;SDS011;3765;47.962;7.952;2022-10-31T05:28:10;12.93;;;3.90;;
7446;SDS011;3765;47.962;7.952;2022-10-31T05:30:38;17.93;;;3.80;;
7446;SDS011;3765;47.962;7.952;2022-10-31T05:33:07;13.57;;;3.10;;
7446;SDS011;3765;47.962;7.952;2022-10-31T05:35:35;10.10;;;3.13;;
7446;SDS011;3765;47.962;7.952;2022-10-31T05:38:04;16.57;;;4.10;;
7446;SDS011;3765;47.962;7.952;2022-10-31T05:40:32;19.10;;;4.97;;
7446;SDS011;3765;47.962;7.952;2022-10-31T05:43:00;18.23;;;5.10;;
7446;SDS011;3765;47.962;7.952;2022-10-31T05:45:29;12.33;;;3.63;;
7446;SDS011;3765;47.962;7.952;2022-10-31T05:47:58;12.90;;;4.77;;
7446;SDS011;3765;47.962;7.952;2022-10-31T05:50:29;18.40;;;3.77;;
7446;SDS011;3765;47.962;7.952;2022-10-31T05:52:59;19.00;;;4.43;;
7446;SDS011;3765;47.962;7.952;2022-10-31T05:55:28;20.27;;;4.13;;
7446;SDS011;3765;47.962;7.952;2022-10-31T05:57:57;17.33;;;5.70;;
7446;SDS011;3765;47.962;7.952;2022-10-31T06:00:26;14.40;;;3.50;;
7446;SDS011;3765;47.962;7.952;2022-10-31T06:02:58;15.00;;;3.77;;
7446;SDS011;3765;47.962;7.952;2022-10-31T06:05:29;18.13;;;3.90;;
7446;SDS011;3765;47.962;7.952;2022-10-31T06:07:57;11.77;;;3.77;;
7446;SDS011;3765;47.962;7.952;2022-10-31T06:10:27;12.60;;;3.47;;
7446;SDS011;3765;47.962;7.952;2022-10-31T06:12:55;12.90;;;3.20;;
7446;SDS011;3765;47.962;7.952;2022-10-31T06:15:23;14.40;;;3.37;;
7446;SDS011;3765;47.962;7.952;2022-10-31T06:17:59;13.73;;;3.47;;
7446;SDS011;3765;47.962;7.952;2022-10-31T06:20:30;16.33;;;4.63;;
7446;SDS011;3765;47.962;7.952;2022-10-31T06:22:59;14.87;;;3.97;;
7446;SDS011;3765;47.962;7.952;2022-10-31T06:25:28;23.10;;;3.40;;
7446;SDS011;3765;47.962;7.952;2022-10-31T06:27:56;26.40;;;4.00;;
7446;SDS011;3765;47.962;7.952;2022-10-31T06:30:24;12.03;;;3.73;;
7446;SDS011;3765;47.962;7.952;2022-10-31T06:32:53;11.70;;;3.50;;
7446;SDS011;3765;47.962;7.952;2022-10-31T06:35:21;13.33;;;4.53;;
7446;SDS011;3765;47.962;7.952;2022-10-31T06:37:54;13.90;;;3.97;;
7446;SDS011;3765;47.962;7.952;2022-10-31T06:40:23;20.00;;;3.90;;
7446;SDS011;3765;47.962;7.952;2022-10-31T06:42:57;15.17;;;4.50;;
7446;SDS011;3765;47.962;7.952;2022-10-31T06:45:26;14.93;;;3.77;;
7446;SDS011;3765;47.962;7.952;2022-10-31T06:47:55;15.63;;;4.50;;
7446;SDS011;3765;47.962;7.952;2022-10-31T06:50:44;17.20;;;4.20;;
7446;SDS011;3765;47.962;7.952;2022-10-31T06:53:13;15.77;;;3.60;;
7446;SDS011;3765;47.962;7.952;2022-10-31T06:55:42;22.53;;;3.83;;
7446;SDS011;3765;47.962;7.952;2022-10-31T06:58:10;13.83;;;3.17;;
7446;SDS011;3765;47.962;7.952;2022-10-31T07:00:39;14.17;;;3.77;;
7446;SDS011;3765;47.962;7.952;2022-10-31T07:03:09;16.00;;;3.80;;
7446;SDS011;3765;47.962;7.952;2022-10-31T07:05:38;26.60;;;3.77;;
7446;SDS011;3765;47.962;7.952;2022-10-31T07:08:14;29.37;;;6.90;;
7446;SDS011;3765;47.962;7.952;2022-10-31T07:10:42;17.80;;;6.80;;
7446;SDS011;3765;47.962;7.952;2022-10-31T07:13:11;23.37;;;5.10;;
7446;SDS011;3765;47.962;7.952;2022-10-31T07:15:41;13.40;;;4.23;;
7446;SDS011;3765;47.962;7.952;2022-10-31T07:18:10;17.40;;;4.13;;
7446;SDS011;3765;47.962;7.952;2022-10-31T07:20:39;20.30;;;5.00;;
7446;SDS011;3765;47.962;7.952;2022-10-31T07:23:07;21.03;;;3.80;;
7446;SDS011;3765;47.962;7.952;2022-10-31T07:25:38;9.33;;;3.40;;
7446;SDS011;3765;47.962;7.952;2022-10-31T07:28:06;16.77;;;3.80;;
7446;SDS011;3765;47.962;7.952;2022-10-31T07:30:35;14.43;;;4.40;;
7446;SDS011;3765;47.962;7.952;2022-10-31T07:33:06;20.73;;;4.57;;
7446;SDS011;3765;47.962;7.952;2022-10-31T07:35:34;13.93;;;3.87;;
7446;SDS011;3765;47.962;7.952;2022-10-31T07:38:09;25.60;;;4.40;;
7446;SDS011;3765;47.962;7.952;2022-10-31T07:40:40;15.10;;;4.50;;
7446;SDS011;3765;47.962;7.952;2022-10-31T07:43:09;28.77;;;6.53;;
7446;SDS011;3765;47.962;7.952;2022-10-31T07:45:40;19.63;;;7.60;;
7446;SDS011;3765;47.962;7.952;2022-10-31T07:48:08;35.67;;;10.00;;
7446;SDS011;3765;47.962;7.952;2022-10-31T07:50:36;21.83;;;8.70;;
7446;SDS011;3765;47.962;7.952;2022-10-31T07:53:06;36.23;;;12.80;;
7446;SDS011;3765;47.962;7.952;2022-10-31T07:55:35;25.87;;;12.60;;
7446;SDS011;3765;47.962;7.952;2022-10-31T07:58:05;23.20;;;11.60;;
7446;SDS011;3765;47.962;7.952;2022-10-31T08:00:35;24.30;;;9.00;;
7446;SDS011;3765;47.962;7.952;2022-10-31T08:03:07;24.43;;;7.53;;
7446;SDS011;3765;47.962;7.952;2022-10-31T08:05:36;22.93;;;5.60;;
7446;SDS011;3765;47.962;7.952;2022-10-31T08:08:04;13.83;;;4.83;;
7446;SDS011;3765;47.962;7.952;2022-10-31T08:10:40;13.73;;;4.00;;
7446;SDS011;3765;47.962;7.952;2022-10-31T08:13:11;16.27;;;3.80;;
7446;SDS011;3765;47.962;7.952;2022-10-31T08:15:40;14.70;;;3.63;;
7446;SDS011;3765;47.962;7.952;2022-10-31T08:18:10;13.00;;;3.30;;
7446;SDS011;3765;47.962;7.952;2022-10-31T08:20:40;14.63;;;3.53;;
7446;SDS011;3765;47.962;7.952;2022-10-31T08:23:09;14.60;;;3.83;;
7446;SDS011;3765;47.962;7.952;2022-10-31T08:25:38;13.70;;;3.80;;
7446;SDS011;3765;47.962;7.952;2022-10-31T08:28:10;19.23;;;3.70;;
7446;SDS011;3765;47.962;7.952;2022-10-31T08:30:38;16.07;;;4.63;;
7446;SDS011;3765;47.962;7.952;2022-10-31T08:33:08;19.63;;;4.20;;
7446;SDS011;3765;47.962;7.952;2022-10-31T08:35:38;11.47;;;4.10;;
7446;SDS011;3765;47.962;7.952;2022-10-31T08:38:08;18.90;;;3.90;;
7446;SDS011;3765;47.962;7.952;2022-10-31T08:40:37;22.70;;;4.00;;
7446;SDS011;3765;47.962;7.952;2022-10-31T08:43:06;28.33;;;9.80;;
7446;SDS011;3765;47.962;7.952;2022-10-31T08:45:38;17.97;;;4.60;;
7446;SDS011;3765;47.962;7.952;2022-10-31T08:48:09;18.03;;;5.20;;
7446;SDS011;3765;47.962;7.952;2022-10-31T08:50:38;18.60;;;5.13;;
7446;SDS011;3765;47.962;7.952;2022-10-31T08:53:09;17.93;;;4.30;;
7446;SDS011;3765;47.962;7.952;2022-10-31T08:55:39;16.13;;;4.20;;
7446;SDS011;3765;47.962;7.952;2022-10-31T08:58:10;16.43;;;4.60;;
7446;SDS011;3765;47.962;7.952;2022-10-31T09:00:40;25.53;;;4.10;;
7446;SDS011;3765;47.962;7.952;2022-10-31T09:03:10;19.50;;;4.43;;
7446;SDS011;3765;47.962;7.952;2022-10-31T09:05:39;28.40;;;3.70;;
7446;SDS011;3765;47.962;7.952;2022-10-31T09:08:08;19.63;;;4.00;;
7446;SDS011;3765;47.962;7.952;2022-10-31T09:10:42;16.53;;;3.77;;
7446;SDS011;3765;47.962;7.952;2022-10-31T09:13:13;16.67;;;4.03;;
7446;SDS011;3765;47.962;7.952;2022-10-31T09:15:43;29.07;;;4.97;;
7446;SDS011;3765;47.962;7.952;2022-10-31T09:18:12;20.87;;;3.87;;
7446;SDS011;3765;47.962;7.952;2022-10-31T09:20:44;21.07;;;4.33;;
7446;SDS011;3765;47.962;7.952;2022-10-31T09:23:14;10.23;;;3.20;;
7446;SDS011;3765;47.962;7.952;2022-10-31T09:25:43;25.90;;;4.13;;
7446;SDS011;3765;47.962;7.952;2022-10-31T09:28:19;38.73;;;4.93;;
7446;SDS011;3765;47.962;7.952;2022-10-31T09:30:49;46.70;;;6.43;;
7446;SDS011;3765;47.962;7.952;2022-10-31T09:33:19;37.13;;;5.73;;
7446;SDS011;3765;47.962;7.952;2022-10-31T09:35:47;41.03;;;5.70;;
7446;SDS011;3765;47.962;7.952;2022-10-31T09:38:17;41.03;;;5.50;;
7446;SDS011;3765;47.962;7.952;2022-10-31T09:40:47;23.10;;;5.20;;
7446;SDS011;3765;47.962;7.952;2022-10-31T09:43:22;24.70;;;5.10;;
7446;SDS011;3765;47.962;7.952;2022-10-31T09:45:59;26.93;;;5.87;;
7446;SDS011;3765;47.962;7.952;2022-10-31T09:48:37;26.03;;;6.73;;
7446;SDS011;3765;47.962;7.952;2022-10-31T09:51:18;23.97;;;5.73;;
7446;SDS011;3765;47.962;7.952;2022-10-31T09:53:51;21.10;;;6.83;;
7446;SDS011;3765;47.962;7.952;2022-10-31T09:56:25;21.50;;;5.83;;
7446;SDS011;3765;47.962;7.952;2022-10-31T09:58:57;25.60;;;5.73;;
7446;SDS011;3765;47.962;7.952;2022-10-31T10:01:32;18.00;;;4.80;;
7446;SDS011;3765;47.962;7.952;2022-10-31T10:04:28;16.10;;;4.13;;
7446;SDS011;3765;47.962;7.952;2022-10-31T10:07:07;25.10;;;5.00;;
7446;SDS011;3765;47.962;7.952;2022-10-31T10:09:41;14.43;;;3.60;;
7446;SDS011;3765;47.962;7.952;2022-10-31T10:12:14;11.27;;;3.70;;
7446;SDS011;3765;47.962;7.952;2022-10-31T10:14:50;21.77;;;4.43;;
7446;SDS011;3765;47.962;7.952;2022-10-31T10:17:32;14.97;;;4.53;;
7446;SDS011;3765;47.962;7.952;2022-10-31T10:20:10;13.20;;;4.50;;
7446;SDS011;3765;47.962;7.952;2022-10-31T10:22:52;12.97;;;4.30;;
7446;SDS011;3765;47.962;7.952;2022-10-31T10:25:28;17.00;;;3.83;;
7446;SDS011;3765;47.962;7.952;2022-10-31T10:28:03;18.33;;;5.23;;
7446;SDS011;3765;47.962;7.952;2022-10-31T10:30:41;16.93;;;5.27;;
7446;SDS011;3765;47.962;7.952;2022-10-31T10:33:13;34.53;;;4.20;;
7446;SDS011;3765;47.962;7.952;2022-10-31T10:35:46;15.40;;;4.73;;
7446;SDS011;3765;47.962;7.952;2022-10-31T10:38:20;15.43;;;4.73;;
7446;SDS011;3765;47.962;7.952;2022-10-31T10:40:52;16.77;;;5.60;;
7446;SDS011;3765;47.962;7.952;2022-10-31T10:43:22;37.23;;;6.00;;
7446;SDS011;3765;47.962;7.952;2022-10-31T10:45:55;21.73;;;5.47;;
7446;SDS011;3765;47.962;7.952;2022-10-31T10:48:50;32.10;;;6.60;;
7446;SDS011;3765;47.962;7.952;2022-10-31T10:51:27;18.53;;;6.13;;
7446;SDS011;3765;47.962;7.952;2022-10-31T10:57:22;24.80;;;7.67;;
7446;SDS011;3765;47.962;7.952;2022-10-31T11:00:00;25.83;;;7.13;;
7446;SDS011;3765;47.962;7.952;2022-10-31T11:02:40;29.57;;;6.87;;
7446;SDS011;3765;47.962;7.952;2022-10-31T11:05:15;20.07;;;6.33;;
7446;SDS011;3765;47.962;7.952;2022-10-31T11:07:50;25.93;;;6.60;;
7446;SDS011;3765;47.962;7.952;2022-10-31T11:10:18;28.07;;;7.00;;
7446;SDS011;3765;47.962;7.952;2022-10-31T11:12:57;30.87;;;7.07;;
7446;SDS011;3765;47.962;7.952;2022-10-31T11:15:30;18.70;;;6.80;;
7446;SDS011;3765;47.962;7.952;2022-10-31T11:18:02;15.00;;;6.00;;
7446;SDS011;3765;47.962;7.952;2022-10-31T11:20:32;24.33;;;7.87;;
7446;SDS011;3765;47.962;7.952;2022-10-31T11:23:03;23.17;;;7.40;;
7446;SDS011;3765;47.962;7.952;2022-10-31T11:25:47;21.30;;;7.33;;
7446;SDS011;3765;47.962;7.952;2022-10-31T11:28:17;17.80;;;7.43;;
7446;SDS011;3765;47.962;7.952;2022-10-31T11:30:46;19.73;;;8.17;;
7446;SDS011;3765;47.962;7.952;2022-10-31T11:33:19;21.30;;;7.10;;
7446;SDS011;3765;47.962;7.952;2022-10-31T11:35:52;19.57;;;6.20;;
7446;SDS011;3765;47.962;7.952;2022-10-31T11:38:26;17.23;;;6.30;;
7446;SDS011;3765;47.962;7.952;2022-10-31T11:41:02;18.73;;;5.80;;
7446;SDS011;3765;47.962;7.952;2022-10-31T11:43:36;19.20;;;5.57;;
7446;SDS011;3765;47.962;7.952;2022-10-31T11:46:09;18.30;;;6.90;;
7446;SDS011;3765;47.962;7.952;2022-10-31T11:48:39;17.60;;;6.90;;
7446;SDS011;3765;47.962;7.952;2022-10-31T11:51:19;18.70;;;6.17;;
7446;SDS011;3765;47.962;7.952;2022-10-31T11:53:50;21.33;;;6.93;;
7446;SDS011;3765;47.962;7.952;2022-10-31T11:56:26;27.43;;;6.33;;
7446;SDS011;3765;47.962;7.952;2022-10-31T11:58:55;16.93;;;7.30;;
7446;SDS011;3765;47.962;7.952;2022-10-31T12:01:24;18.80;;;6.10;;
7446;SDS011;3765;47.962;7.952;2022-10-31T12:03:58;17.47;;;5.90;;
7446;SDS011;3765;47.962;7.952;2022-10-31T12:06:34;24.00;;;5.53;;
7446;SDS011;3765;47.962;7.952;2022-10-31T12:09:18;16.67;;;5.13;;
7446;SDS011;3765;47.962;7.952;2022-10-31T12:11:54;18.43;;;5.30;;
7446;SDS011;3765;47.962;7.952;2022-10-31T12:14:35;13.00;;;4.97;;
7446;SDS011;3765;47.962;7.952;2022-10-31T12:17:11;11.47;;;4.20;;
7446;SDS011;3765;47.962;7.952;2022-10-31T12:19:47;22.77;;;5.70;;
7446;SDS011;3765;47.962;7.952;2022-10-31T12:22:23;17.97;;;6.17;;
7446;SDS011;3765;47.962;7.952;2022-10-31T12:25:00;19.53;;;5.73;;
7446;SDS011;3765;47.962;7.952;2022-10-31T12:27:59;23.17;;;5.97;;
7446;SDS011;3765;47.962;7.952;2022-10-31T12:30:38;13.40;;;4.80;;
7446;SDS011;3765;47.962;7.952;2022-10-31T12:33:21;21.43;;;5.63;;
7446;SDS011;3765;47.962;7.952;2022-10-31T12:36:09;15.57;;;5.73;;
7446;SDS011;3765;47.962;7.952;2022-10-31T12:39:02;28.57;;;14.37;;
7446;SDS011;3765;47.962;7.952;2022-10-31T12:41:44;18.40;;;5.33;;
7446;SDS011;3765;47.962;7.952;2022-10-31T12:44:21;19.33;;;4.30;;
7446;SDS011;3765;47.962;7.952;2022-10-31T12:47:06;24.23;;;4.30;;
7446;SDS011;3765;47.962;7.952;2022-10-31T12:49:47;16.70;;;5.20;;
7446;SDS011;3765;47.962;7.952;2022-10-31T12:52:30;21.43;;;4.77;;
7446;SDS011;3765;47.962;7.952;2022-10-31T12:55:24;13.70;;;4.20;;
7446;SDS011;3765;47.962;7.952;2022-10-31T12:58:06;17.87;;;4.90;;
7446;SDS011;3765;47.962;7.952;2022-10-31T13:00:38;18.67;;;4.50;;
7446;SDS011;3765;47.962;7.952;2022-10-31T13:03:17;11.90;;;3.47;;
7446;SDS011;3765;47.962;7.952;2022-10-31T13:05:53;20.87;;;4.97;;
7446;SDS011;3765;47.962;7.952;2022-10-31T13:08:28;25.23;;;4.00;;
7446;SDS011;3765;47.962;7.952;2022-10-31T13:11:05;11.00;;;3.30;;
7446;SDS011;3765;47.962;7.952;2022-10-31T13:13:37;21.40;;;3.77;;
7446;SDS011;3765;47.962;7.952;2022-10-31T13:16:10;13.90;;;3.90;;
7446;SDS011;3765;47.962;7.952;2022-10-31T13:18:43;16.47;;;3.57;;
7446;SDS011;3765;47.962;7.952;2022-10-31T13:21:17;18.80;;;3.77;;
7446;SDS011;3765;47.962;7.952;2022-10-31T13:23:50;16.73;;;3.73;;
7446;SDS011;3765;47.962;7.952;2022-10-31T13:26:21;18.40;;;3.77;;
7446;SDS011;3765;47.962;7.952;2022-10-31T13:28:54;21.37;;;3.43;;
7446;SDS011;3765;47.962;7.952;2022-10-31T13:31:27;15.93;;;3.70;;
7446;SDS011;3765;47.962;7.952;2022-10-31T13:33:56;14.40;;;3.93;;
7446;SDS011;3765;47.962;7.952;2022-10-31T13:36:28;14.07;;;3.73;;
7446;SDS011;3765;47.962;7.952;2022-10-31T13:39:03;17.17;;;4.83;;
7446;SDS011;3765;47.962;7.952;2022-10-31T13:41:45;15.40;;;5.03;;
7446;SDS011;3765;47.962;7.952;2022-10-31T13:44:17;19.60;;;5.90;;
7446;SDS011;3765;47.962;7.952;2022-10-31T13:46:50;26.80;;;6.50;;
7446;SDS011;3765;47.962;7.952;2022-10-31T13:49:38;21.23;;;5.90;;
7446;SDS011;3765;47.962;7.952;2022-10-31T13:52:16;22.20;;;6.53;;
7446;SDS011;3765;47.962;7.952;2022-10-31T13:54:53;24.47;;;6.70;;
7446;SDS011;3765;47.962;7.952;2022-10-31T13:57:27;37.27;;;6.20;;
7446;SDS011;3765;47.962;7.952;2022-10-31T14:00:00;29.23;;;7.20;;
7446;SDS011;3765;47.962;7.952;2022-10-31T14:02:31;17.73;;;5.80;;
7446;SDS011;3765;47.962;7.952;2022-10-31T14:05:03;21.33;;;5.43;;
7446;SDS011;3765;47.962;7.952;2022-10-31T14:07:41;24.83;;;6.00;;
7446;SDS011;3765;47.962;7.952;2022-10-31T14:10:20;28.43;;;7.67;;
7446;SDS011;3765;47.962;7.952;2022-10-31T14:12:53;27.23;;;5.83;;
7446;SDS011;3765;47.962;7.952;2022-10-31T14:15:29;19.97;;;6.00;;
7446;SDS011;3765;47.962;7.952;2022-10-31T14:17:59;17.73;;;5.60;;
7446;SDS011;3765;47.962;7.952;2022-10-31T14:20:34;21.30;;;5.10;;
7446;SDS011;3765;47.962;7.952;2022-10-31T14:23:12;19.93;;;6.27;;
7446;SDS011;3765;47.962;7.952;2022-10-31T14:26:08;22.47;;;5.70;;
7446;SDS011;3765;47.962;7.952;2022-10-31T14:28:57;22.90;;;5.63;;
7446;SDS011;3765;47.962;7.952;2022-10-31T14:31:29;21.80;;;5.40;;
7446;SDS011;3765;47.962;7.952;2022-10-31T14:34:01;19.97;;;5.90;;
7446;SDS011;3765;47.962;7.952;2022-10-31T14:36:36;23.67;;;5.63;;
7446;SDS011;3765;47.962;7.952;2022-10-31T14:39:18;23.13;;;5.87;;
7446;SDS011;3765;47.962;7.952;2022-10-31T14:42:00;19.63;;;6.10;;
7446;SDS011;3765;47.962;7.952;2022-10-31T14:44:44;20.70;;;5.90;;
7446;SDS011;3765;47.962;7.952;2022-10-31T14:47:31;15.93;;;5.80;;
7446;SDS011;3765;47.962;7.952;2022-10-31T14:50:16;22.67;;;5.60;;
7446;SDS011;3765;47.962;7.952;2022-10-31T14:52:51;27.70;;;5.20;;
7446;SDS011;3765;47.962;7.952;2022-10-31T14:55:22;25.33;;;5.50;;
7446;SDS011;3765;47.962;7.952;2022-10-31T14:57:54;26.83;;;6.40;;
7446;SDS011;3765;47.962;7.952;2022-10-31T15:00:25;21.27;;;5.80;;
7446;SDS011;3765;47.962;7.952;2022-10-31T15:02:59;19.73;;;4.73;;
7446;SDS011;3765;47.962;7.952;2022-10-31T15:05:40;36.00;;;6.07;;
7446;SDS011;3765;47.962;7.952;2022-10-31T15:08:13;22.73;;;5.43;;
7446;SDS011;3765;47.962;7.952;2022-10-31T15:10:53;21.23;;;5.80;;
7446;SDS011;3765;47.962;7.952;2022-10-31T15:13:22;19.63;;;6.53;;
7446;SDS011;3765;47.962;7.952;2022-10-31T15:15:51;16.80;;;5.70;;
7446;SDS011;3765;47.962;7.952;2022-10-31T15:18:23;28.00;;;9.60;;
7446;SDS011;3765;47.962;7.952;2022-10-31T15:20:53;17.03;;;5.93;;
7446;SDS011;3765;47.962;7.952;2022-10-31T15:23:24;23.33;;;6.70;;
7446;SDS011;3765;47.962;7.952;2022-10-31T15:26:00;26.70;;;5.93;;
7446;SDS011;3765;47.962;7.952;2022-10-31T15:28:30;23.70;;;6.97;;
7446;SDS011;3765;47.962;7.952;2022-10-31T15:30:59;23.50;;;8.47;;
7446;SDS011;3765;47.962;7.952;2022-10-31T15:33:29;24.57;;;7.47;;
7446;SDS011;3765;47.962;7.952;2022-10-31T15:36:05;21.87;;;8.10;;
7446;SDS011;3765;47.962;7.952;2022-10-31T15:38:33;33.30;;;10.30;;
7446;SDS011;3765;47.962;7.952;2022-10-31T15:41:02;26.80;;;9.00;;
7446;SDS011;3765;47.962;7.952;2022-10-31T15:43:35;27.80;;;8.40;;
7446;SDS011;3765;47.962;7.952;2022-10-31T15:46:06;20.30;;;8.50;;